Time;durP1;ratioP1;P1;durP2;ratioP2;P2;SDS_P1;SDS_P2;PMS_P1;PMS_P2;Temp;Humidity;BMP_temperature;BMP_pressure;BME280_temperature;BME280_humidity;BME280_pressure;Samples;Min_cycle;Max_cycle;Signal;HPM_P1;HPM_P2
2022/11/25 06:53:40;;;;;;;;;2.00;0.00;;;;;18.10;50.27;101238.72;5065058;27;46418;-74
2022/11/25 06:56:13;;;;;;;;;1.67;1.33;;;;;18.44;50.99;101252.19;5062849;28;45872;-74
2022/11/25 06:58:39;;;;;;;;;0.67;0.67;;;;;18.92;50.90;101250.19;5069180;28;45782;-74
2022/11/25 07:01:12;;;;;;;;;1.00;1.00;;;;;19.49;51.12;101250.00;5067866;27;45514;-72
2022/11/25 07:03:37;;;;;;;;;0.33;0.33;;;;;20.05;51.11;101255.25;5065448;28;48334;-72
2022/11/25 07:06:03;;;;;;;;;0.67;0.67;;;;;20.53;50.89;101249.25;5066433;28;45547;-73
2022/11/25 07:08:28;;;;;;;;;1.67;1.67;;;;;21.03;50.10;101265.59;5067233;28;45525;-73
2022/11/25 07:10:54;;;;;;;;;1.00;1.00;;;;;21.42;49.91;101260.25;5066073;28;45429;-72
2022/11/25 07:13:20;;;;;;;;;0.33;0.33;;;;;21.79;49.55;101264.09;5063994;28;45746;-73
2022/11/25 07:15:45;;;;;;;;;0.67;0.33;;;;;22.10;49.59;101261.19;5063738;27;45841;-72
2022/11/25 07:18:11;;;;;;;;;3.00;1.33;;;;;22.33;48.92;101268.09;5067843;28;46004;-73
2022/11/25 07:20:37;;;;;;;;;2.33;2.33;;;;;22.54;49.22;101267.91;5068429;28;45857;-75
2022/11/25 07:23:02;;;;;;;;;2.33;2.00;;;;;22.72;48.66;101273.38;5066239;27;45888;-74
2022/11/25 07:25:27;;;;;;;;;2.67;1.00;;;;;22.88;48.73;101283.53;5067618;28;50350;-76
2022/11/25 07:27:53;;;;;;;;;3.00;2.00;;;;;23.01;48.17;101279.63;5065065;28;52280;-73
2022/11/25 07:30:18;;;;;;;;;2.00;1.00;;;;;23.12;47.57;101289.38;5068183;28;45431;-73
2022/11/25 07:32:43;;;;;;;;;1.00;1.00;;;;;23.20;47.96;101284.06;5066638;28;46352;-73
2022/11/25 07:35:09;;;;;;;;;0.00;0.00;;;;;23.29;47.50;101293.09;5065598;28;45664;-76
2022/11/25 07:37:34;;;;;;;;;2.00;2.00;;;;;23.36;47.33;101296.09;5066225;28;45516;-76
2022/11/25 07:39:59;;;;;;;;;0.00;0.00;;;;;23.42;47.37;101293.63;5064359;28;50863;-75
2022/11/25 07:42:25;;;;;;;;;2.00;1.67;;;;;23.48;47.20;101300.28;5067369;27;46300;-76
2022/11/25 07:44:51;;;;;;;;;1.00;1.00;;;;;23.53;47.08;101302.50;5066056;28;46169;-76
2022/11/25 07:47:16;;;;;;;;;2.00;2.00;;;;;23.58;46.78;101308.31;5068117;28;45519;-76
2022/11/25 07:49:41;;;;;;;;;1.67;1.33;;;;;23.62;46.73;101315.13;5063321;28;46850;-75
2022/11/25 07:52:08;;;;;;;;;3.00;1.00;;;;;23.68;46.67;101306.41;5071177;27;47349;-77
2022/11/25 07:54:33;;;;;;;;;2.00;1.00;;;;;23.74;46.51;101315.75;5085521;27;46912;-75
2022/11/25 07:56:59;;;;;;;;;1.00;1.00;;;;;23.76;46.54;101316.44;5082390;27;45567;-76
2022/11/25 07:59:24;;;;;;;;;1.00;1.00;;;;;23.85;46.42;101325.50;5087666;27;45827;-74
2022/11/25 08:01:51;;;;;;;;;1.00;1.00;;;;;23.90;46.19;101328.59;5086321;27;46069;-74
2022/11/25 08:04:17;;;;;;;;;1.00;1.00;;;;;23.93;46.25;101333.69;5073774;27;45349;-74
2022/11/25 08:06:45;;;;;;;;;1.67;1.67;;;;;23.99;46.13;101332.19;5052786;28;46012;-75
2022/11/25 08:09:14;;;;;;;;;0.67;0.67;;;;;24.06;46.02;101345.97;5073763;28;45393;-74
2022/11/25 08:11:41;;;;;;;;;2.67;2.00;;;;;24.12;45.88;101358.09;5071821;27;47284;-74
2022/11/25 08:14:07;;;;;;;;;1.67;1.67;;;;;24.19;45.70;101356.44;5071514;28;45577;-75
2022/11/25 08:16:32;;;;;;;;;1.00;1.00;;;;;24.25;45.83;101360.41;5053326;28;45459;-76
2022/11/25 08:19:00;;;;;;;;;3.00;2.00;;;;;24.29;45.78;101365.38;5073256;27;45411;-75
2022/11/25 08:21:26;;;;;;;;;3.00;1.67;;;;;24.36;45.61;101376.41;5071975;27;46320;-73
2022/11/25 08:23:52;;;;;;;;;1.67;1.67;;;;;24.41;45.50;101384.94;5071413;28;45804;-74
2022/11/25 08:26:29;;;;;;;;;1.00;1.00;;;;;24.46;45.55;101379.03;5073427;28;45584;-72
2022/11/25 08:28:58;;;;;;;;;1.00;1.00;;;;;24.51;45.65;101389.38;5071905;28;45743;-74
2022/11/25 08:31:27;;;;;;;;;1.67;0.33;;;;;24.55;45.34;101390.78;5054180;28;46359;-74
2022/11/25 08:33:53;;;;;;;;;0.33;0.33;;;;;24.57;45.09;101397.75;5052949;28;45830;-74
2022/11/25 08:36:20;;;;;;;;;1.67;1.67;;;;;24.61;45.17;101399.13;5072077;27;45618;-74
2022/11/25 08:38:48;;;;;;;;;2.33;1.00;;;;;24.65;45.08;101394.25;5071987;27;45546;-74
2022/11/25 08:41:16;;;;;;;;;1.00;1.00;;;;;24.74;45.09;101408.72;5069383;27;45475;-73
2022/11/25 08:43:42;;;;;;;;;1.00;0.00;;;;;24.82;44.98;101407.91;5068778;27;45737;-75
2022/11/25 08:46:13;;;;;;;;;1.00;1.00;;;;;24.89;45.21;101408.16;5071885;27;45413;-75
2022/11/25 08:48:39;;;;;;;;;1.00;1.00;;;;;24.97;44.76;101409.03;5073435;27;45753;-75
2022/11/25 08:51:21;;;;;;;;;1.33;1.00;;;;;25.08;44.67;101420.63;5071162;27;45844;-73
2022/11/25 08:53:50;;;;;;;;;1.00;1.00;;;;;25.18;44.95;101423.22;5072408;28;45457;-74
2022/11/25 08:56:15;;;;;;;;;1.00;1.00;;;;;25.26;44.81;101425.97;5049723;28;45785;-74
2022/11/25 08:58:41;;;;;;;;;2.00;2.00;;;;;25.35;44.50;101426.84;5071891;27;45841;-74
2022/11/25 09:01:06;;;;;;;;;4.00;1.00;;;;;25.41;44.64;101428.91;5071900;27;45626;-74
2022/11/25 09:03:34;;;;;;;;;1.67;0.00;;;;;25.47;44.85;101433.66;5069717;27;45870;-74
2022/11/25 09:06:00;;;;;;;;;1.67;1.67;;;;;25.50;44.38;101438.78;5061938;27;45849;-75
2022/11/25 09:08:26;;;;;;;;;1.00;1.00;;;;;25.56;44.23;101439.16;5069106;27;45455;-71
2022/11/25 09:10:51;;;;;;;;;2.33;2.00;;;;;25.55;44.49;101449.22;5069591;27;46495;-72
2022/11/25 09:13:17;;;;;;;;;3.00;1.67;;;;;25.57;44.58;101455.31;5054050;28;47467;-74
2022/11/25 09:15:42;;;;;;;;;1.00;1.00;;;;;25.58;44.28;101461.59;5069550;27;49746;-73
2022/11/25 09:18:09;;;;;;;;;1.67;0.67;;;;;25.59;43.69;101468.75;5069872;27;45345;-73
2022/11/25 09:20:38;;;;;;;;;1.00;1.00;;;;;25.60;44.12;101474.03;5070942;27;46381;-73
2022/11/25 09:23:04;;;;;;;;;1.00;1.00;;;;;25.60;43.73;101468.59;5073790;28;45514;-72
2022/11/25 09:25:29;;;;;;;;;3.00;1.00;;;;;25.62;43.80;101477.41;5072938;28;45529;-73
2022/11/25 09:27:55;;;;;;;;;2.00;2.00;;;;;25.61;43.74;101485.72;5072508;28;46561;-72
2022/11/25 09:30:21;;;;;;;;;1.00;1.00;;;;;25.61;43.70;101491.16;5069924;28;45536;-73
2022/11/25 09:32:51;;;;;;;;;1.33;1.00;;;;;25.61;43.84;101485.72;5073076;27;45546;-73
2022/11/25 09:35:17;;;;;;;;;1.00;1.00;;;;;25.62;43.59;101487.41;5072341;28;45780;-74
2022/11/25 09:37:43;;;;;;;;;2.33;1.33;;;;;25.64;43.67;101497.16;5069480;28;45439;-73
2022/11/25 09:40:16;;;;;;;;;2.00;2.00;;;;;25.70;43.52;101494.78;5068808;27;45492;-72
2022/11/25 09:48:42;;;;;;;;;1.33;1.00;;;;;25.76;43.59;101513.13;5072735;28;45476;-73
2022/11/25 09:51:33;;;;;;;;;0.00;0.00;;;;;25.76;43.10;101510.41;5068709;28;46174;-74
2022/11/25 09:54:07;;;;;;;;;1.00;1.00;;;;;25.76;43.78;101515.84;5064522;27;45439;-75
2022/11/25 09:56:41;;;;;;;;;2.00;2.00;;;;;25.75;43.15;101509.56;5071992;27;45470;-74
2022/11/25 09:59:17;;;;;;;;;4.00;2.00;;;;;25.73;43.13;101514.31;5067852;27;45466;-71
2022/11/25 10:01:56;;;;;;;;;1.00;1.00;;;;;25.75;43.22;101519.59;5061862;27;45672;-71
2022/11/25 10:04:30;;;;;;;;;2.00;2.00;;;;;25.75;43.29;101528.59;5067614;28;45508;-71
2022/11/25 10:07:00;;;;;;;;;1.00;1.00;;;;;25.74;43.06;101535.06;5071249;27;45420;-71
2022/11/25 10:09:29;;;;;;;;;2.00;1.00;;;;;25.77;43.25;101551.03;5068354;27;45775;-71
2022/11/25 10:12:04;;;;;;;;;1.33;1.33;;;;;25.81;43.59;101553.41;5068627;27;45349;-71
2022/11/25 10:14:46;;;;;;;;;1.00;0.67;;;;;25.85;43.33;101563.81;5068916;27;45456;-71
2022/11/25 10:17:28;;;;;;;;;5.00;2.00;;;;;25.90;43.38;101556.00;5066962;27;45501;-71
2022/11/25 10:20:05;;;;;;;;;1.00;1.00;;;;;25.95;43.14;101557.38;5067505;27;45805;-71
2022/11/25 10:22:36;;;;;;;;;1.33;1.33;;;;;25.99;42.71;101553.31;5071763;27;45502;-71
2022/11/25 10:25:20;;;;;;;;;2.00;2.00;;;;;26.02;43.15;101562.00;5067216;27;45625;-71
2022/11/25 10:28:20;;;;;;;;;2.67;1.00;;;;;26.03;43.21;101566.41;5069834;27;45831;-71
2022/11/25 10:31:17;;;;;;;;;2.33;1.00;;;;;26.04;42.74;101575.44;5066019;27;45928;-70
2022/11/25 10:33:56;;;;;;;;;1.00;1.00;;;;;26.04;43.04;101579.00;5071648;27;45444;-73
2022/11/25 10:36:38;;;;;;;;;2.67;2.67;;;;;26.03;42.99;101585.44;5069992;27;45474;-74
2022/11/25 10:39:11;;;;;;;;;2.00;1.67;;;;;25.99;42.56;101599.56;5064583;27;45513;-73
2022/11/25 10:41:52;;;;;;;;;1.00;1.00;;;;;25.96;42.65;101606.19;5066551;27;45502;-74
2022/11/25 10:44:29;;;;;;;;;2.00;2.00;;;;;25.92;42.63;101596.66;5069087;27;45490;-74
2022/11/25 10:47:22;;;;;;;;;3.00;1.67;;;;;25.89;42.32;101596.97;5063443;27;45435;-72
2022/11/25 10:50:18;;;;;;;;;3.00;2.67;;;;;25.82;42.20;101595.94;5067804;27;45451;-70
2022/11/25 10:52:55;;;;;;;;;2.67;2.67;;;;;25.76;42.56;101600.16;5069162;28;45569;-72
2022/11/25 10:55:24;;;;;;;;;3.00;2.33;;;;;25.75;42.12;101606.59;5067660;27;46566;-73
2022/11/25 10:57:51;;;;;;;;;1.67;1.67;;;;;25.77;42.22;101615.44;5067990;28;45442;-73
2022/11/25 11:00:34;;;;;;;;;3.67;2.00;;;;;25.77;42.68;101613.59;5069507;27;45413;-74
2022/11/25 11:03:24;;;;;;;;;2.00;2.00;;;;;25.78;42.16;101615.28;5068804;27;45373;-74
2022/11/25 11:05:52;;;;;;;;;2.00;2.00;;;;;25.79;42.68;101616.97;5069194;28;46215;-74
2022/11/25 11:08:24;;;;;;;;;3.00;2.00;;;;;25.81;42.64;101618.66;5070010;27;45831;-74
2022/11/25 11:11:15;;;;;;;;;1.33;1.33;;;;;25.81;42.21;101616.81;5065332;28;45515;-71
2022/11/25 11:13:40;;;;;;;;;4.33;3.00;;;;;25.83;42.22;101612.06;5060652;28;45459;-72
2022/11/25 11:16:30;;;;;;;;;4.67;2.67;;;;;25.85;42.48;101611.91;5070325;28;46069;-74
2022/11/25 11:18:57;;;;;;;;;7.67;3.67;;;;;25.81;42.13;101614.09;5061898;27;45432;-74
2022/11/25 11:21:31;;;;;;;;;2.67;2.00;;;;;25.77;41.75;101610.00;5072834;28;45478;-74
2022/11/25 11:23:58;;;;;;;;;3.00;3.00;;;;;25.75;42.11;101614.75;5068809;27;46457;-74
2022/11/25 11:26:31;;;;;;;;;2.00;2.00;;;;;25.75;42.21;101620.19;5070091;28;46109;-75
2022/11/25 11:29:14;;;;;;;;;2.33;2.33;;;;;25.74;42.22;101619.34;5069915;28;45836;-75
2022/11/25 11:31:46;;;;;;;;;2.33;2.33;;;;;25.75;42.30;101617.47;5066569;27;45565;-75
2022/11/25 11:34:28;;;;;;;;;5.67;3.67;;;;;25.78;41.94;101626.16;5070439;27;45411;-74
2022/11/25 11:37:34;;;;;;;;;3.00;3.00;;;;;25.83;42.34;101638.41;5057745;27;45488;-74
2022/11/25 11:40:18;;;;;;;;;3.67;3.00;;;;;25.88;42.30;101636.06;5075663;28;45357;-73
2022/11/25 11:43:13;;;;;;;;;3.00;2.00;;;;;25.91;41.73;101636.56;5074485;28;45440;-74
2022/11/25 11:45:41;;;;;;;;;5.00;2.67;;;;;25.97;42.39;101637.81;5071799;28;45334;-72
2022/11/25 11:48:20;;;;;;;;;4.00;2.00;;;;;26.05;41.89;101626.09;5070987;28;45578;-72
2022/11/25 11:51:23;;;;;;;;;3.00;3.00;;;;;26.13;42.25;101636.16;5076122;27;45509;-72
2022/11/25 11:53:51;;;;;;;;;2.67;1.00;;;;;26.23;42.38;101641.47;5064971;28;45802;-72
2022/11/25 11:56:35;;;;;;;;;2.33;2.33;;;;;26.33;42.27;101644.06;5072665;27;45524;-72
2022/11/25 11:59:45;;;;;;;;;1.33;1.33;;;;;26.42;42.36;101632.19;5070139;28;46883;-72
2022/11/25 12:02:28;;;;;;;;;3.00;3.00;;;;;26.51;41.67;101643.94;5006323;28;45416;-72
2022/11/25 12:05:11;;;;;;;;;4.67;2.00;;;;;26.54;41.35;101638.16;5012468;28;45481;-72
2022/11/25 12:07:50;;;;;;;;;0.00;0.00;;;;;26.57;41.52;101648.72;5010100;28;45495;-72
2022/11/25 12:10:31;;;;;;;;;1.33;1.33;;;;;26.61;41.33;101654.69;5012604;28;46244;-72
2022/11/25 12:13:14;;;;;;;;;1.33;1.33;;;;;26.62;41.05;101656.38;5013043;28;45517;-72
2022/11/25 12:15:51;;;;;;;;;2.00;2.00;;;;;26.61;41.08;101662.84;5007485;28;45451;-72
2022/11/25 12:18:19;;;;;;;;;2.00;1.00;;;;;26.58;41.04;101653.97;5007762;28;45493;-72
2022/11/25 12:21:04;;;;;;;;;2.00;2.00;;;;;26.57;40.94;101668.63;4996995;28;47095;-72
2022/11/25 12:24:03;;;;;;;;;2.00;2.00;;;;;26.55;40.96;101670.66;5004887;28;45620;-72
2022/11/25 12:26:48;;;;;;;;;3.00;3.00;;;;;26.51;40.76;101679.31;5006421;28;45892;-71
2022/11/25 12:29:37;;;;;;;;;1.33;1.33;;;;;26.47;40.94;101686.09;5007264;28;45818;-71
2022/11/25 12:32:20;;;;;;;;;3.67;3.67;;;;;26.45;40.74;101680.84;5004052;28;46687;-71
2022/11/25 12:35:08;;;;;;;;;1.67;1.00;;;;;26.46;41.48;101681.69;4998289;28;45503;-72
2022/11/25 12:37:59;;;;;;;;;0.67;0.67;;;;;26.49;41.36;101682.22;5011631;28;45762;-72
2022/11/25 12:40:43;;;;;;;;;3.00;3.00;;;;;26.53;41.44;101674.56;5069125;28;45643;-71
2022/11/25 12:43:35;;;;;;;;;2.33;1.67;;;;;26.55;41.15;101667.94;5065928;27;46434;-72
2022/11/25 12:46:32;;;;;;;;;3.00;2.00;;;;;26.60;41.41;101674.75;5070243;28;45463;-72
2022/11/25 12:48:58;;;;;;;;;4.00;2.67;;;;;26.62;41.23;101681.75;5009863;28;45553;-71
2022/11/25 12:51:42;;;;;;;;;2.00;1.00;;;;;26.64;40.67;101684.31;5011203;28;45519;-73
2022/11/25 12:54:26;;;;;;;;;1.00;1.00;;;;;26.66;40.97;101698.59;5013248;28;46274;-72
2022/11/25 12:57:06;;;;;;;;;2.67;1.33;;;;;26.65;41.36;101695.00;5011348;28;45847;-71
2022/11/25 13:00:08;;;;;;;;;3.00;1.00;;;;;26.67;41.39;101686.69;5002182;28;45591;-73
2022/11/25 13:02:51;;;;;;;;;1.00;1.00;;;;;26.69;41.43;101688.22;4943959;28;45754;-72
2022/11/25 13:05:51;;;;;;;;;1.67;1.67;;;;;26.74;41.07;101695.91;4950873;28;45651;-72
2022/11/25 13:08:38;;;;;;;;;1.00;1.00;;;;;26.81;41.52;101701.53;4948588;28;45613;-72
2022/11/25 13:11:22;;;;;;;;;1.67;1.67;;;;;26.87;40.87;101710.88;4952565;28;46546;-72
2022/11/25 13:14:11;;;;;;;;;1.33;1.00;;;;;26.89;41.27;101715.13;4947853;28;45514;-72
2022/11/25 13:16:37;;;;;;;;;1.33;1.33;;;;;26.92;40.79;101717.53;4950880;28;46304;-72
2022/11/25 13:19:08;;;;;;;;;1.00;1.00;;;;;26.96;41.45;101718.94;4949981;28;45465;-73
2022/11/25 13:21:33;;;;;;;;;1.67;1.67;;;;;27.04;41.44;101725.41;4946908;28;46474;-73
2022/11/25 13:23:59;;;;;;;;;4.00;2.00;;;;;27.08;41.01;101722.19;4948552;28;45827;-71
2022/11/25 13:26:37;;;;;;;;;3.00;2.00;;;;;27.14;41.01;101714.34;4973355;28;46093;-73
2022/11/25 13:29:25;;;;;;;;;3.67;2.33;;;;;27.19;40.90;101718.28;4990663;28;45991;-73
2022/11/25 13:32:23;;;;;;;;;1.00;1.00;;;;;27.23;41.24;101721.50;4984061;28;45540;-74
2022/11/25 13:34:49;;;;;;;;;1.33;1.33;;;;;27.27;41.39;101717.44;4985463;28;45817;-74
2022/11/25 13:37:34;;;;;;;;;2.67;2.67;;;;;27.32;40.72;101730.53;4985932;28;46150;-74
2022/11/25 13:40:18;;;;;;;;;1.00;1.00;;;;;27.34;40.92;101728.50;5050587;28;45538;-73
2022/11/25 13:42:44;;;;;;;;;0.00;0.00;;;;;27.36;41.37;101738.22;5072312;28;45567;-73
2022/11/25 13:45:29;;;;;;;;;2.00;1.00;;;;;27.38;40.66;101734.44;5073210;28;45398;-71
2022/11/25 13:48:04;;;;;;;;;1.33;1.33;;;;;27.36;41.02;101734.63;5069071;27;46144;-71
2022/11/25 13:50:29;;;;;;;;;4.00;2.00;;;;;27.34;40.60;101737.50;5073743;28;45441;-71
2022/11/25 13:53:02;;;;;;;;;1.00;1.00;;;;;27.34;40.76;101734.78;5055376;28;45517;-72
2022/11/25 13:55:38;;;;;;;;;1.00;1.00;;;;;27.30;40.95;101743.47;5072277;28;45387;-73
2022/11/25 13:58:09;;;;;;;;;1.33;1.33;;;;;27.25;40.54;101740.41;5065242;27;45380;-73
2022/11/25 14:00:35;;;;;;;;;4.00;1.00;;;;;27.22;40.48;101739.72;5070921;28;45683;-72
2022/11/25 14:03:18;;;;;;;;;0.00;0.00;;;;;27.22;41.13;101744.34;5070297;27;45544;-73
2022/11/25 14:05:47;;;;;;;;;3.00;1.00;;;;;27.23;40.64;101738.69;5073353;27;45700;-72
2022/11/25 14:08:38;;;;;;;;;1.33;1.33;;;;;27.27;40.66;101741.09;5073658;27;45439;-71
2022/11/25 14:11:09;;;;;;;;;1.00;1.00;;;;;27.29;41.10;101758.09;5072283;27;45449;-71
2022/11/25 14:13:52;;;;;;;;;1.00;1.00;;;;;27.28;41.15;101749.09;5074182;27;45440;-71
2022/11/25 14:16:29;;;;;;;;;2.67;1.33;;;;;27.27;40.58;101762.91;5071252;28;45581;-74
2022/11/25 14:19:16;;;;;;;;;2.00;2.00;;;;;27.26;40.63;101769.38;5071686;27;45426;-74
2022/11/25 14:22:19;;;;;;;;;2.00;2.00;;;;;27.23;41.03;101771.41;5064345;27;45358;-74
2022/11/25 14:24:48;;;;;;;;;1.33;1.33;;;;;27.17;41.13;101780.25;5068714;27;45503;-74
2022/11/25 14:27:23;;;;;;;;;0.00;0.00;;;;;27.09;40.79;101788.41;5070730;27;45522;-74
2022/11/25 14:29:54;;;;;;;;;1.33;1.00;;;;;27.03;40.21;101779.06;5067335;28;45454;-75
2022/11/25 14:32:26;;;;;;;;;1.00;1.00;;;;;26.98;40.55;101797.78;5051634;27;45449;-73
2022/11/25 14:35:10;;;;;;;;;2.00;1.00;;;;;26.96;40.37;101797.06;5069348;27;45375;-71
2022/11/25 14:37:39;;;;;;;;;1.33;1.33;;;;;26.92;40.42;101801.97;5059373;27;45757;-73
2022/11/25 14:40:13;;;;;;;;;2.00;1.00;;;;;26.92;40.42;101801.97;5066081;28;46074;-73
2022/11/25 14:42:44;;;;;;;;;2.33;2.33;;;;;26.92;41.13;101815.59;5074274;28;45558;-74
2022/11/25 14:45:22;;;;;;;;;1.00;1.00;;;;;26.93;40.91;101814.59;5072309;27;45510;-75
2022/11/25 14:47:47;;;;;;;;;1.00;1.00;;;;;26.92;40.61;101817.44;5066685;28;45371;-74
2022/11/25 14:50:14;;;;;;;;;2.00;2.00;;;;;26.91;40.33;101822.06;5050825;27;45523;-74
2022/11/25 14:52:45;;;;;;;;;1.67;1.00;;;;;26.90;41.11;101822.22;5067489;27;45687;-74
2022/11/25 14:55:11;;;;;;;;;1.33;1.33;;;;;26.90;40.99;101819.50;5069806;27;45828;-75
2022/11/25 14:57:41;;;;;;;;;2.00;2.00;;;;;26.90;41.12;101833.13;5066384;27;45448;-75
2022/11/25 15:00:16;;;;;;;;;1.67;1.67;;;;;26.91;40.47;101826.66;5072263;28;46510;-74
2022/11/25 15:03:03;;;;;;;;;3.00;2.00;;;;;26.91;41.10;101830.25;5059823;27;45506;-75
2022/11/25 15:05:33;;;;;;;;;2.33;1.00;;;;;26.94;40.61;101838.09;5066843;28;45392;-74
2022/11/25 15:08:14;;;;;;;;;3.00;1.00;;;;;26.98;40.79;101856.84;5070487;27;45533;-73
2022/11/25 15:11:00;;;;;;;;;1.00;1.00;;;;;27.03;40.42;101849.03;5073500;28;46324;-75
2022/11/25 15:13:31;;;;;;;;;1.00;1.00;;;;;27.08;40.67;101861.13;5065057;27;45767;-74
2022/11/25 15:16:08;;;;;;;;;2.33;1.00;;;;;27.14;41.20;101867.78;5075104;27;45842;-74
2022/11/25 15:18:34;;;;;;;;;1.67;1.00;;;;;27.18;40.92;101871.03;5068491;28;45424;-74
2022/11/25 15:21:01;;;;;;;;;2.67;2.00;;;;;27.21;41.01;101878.88;5076992;28;46369;-74
2022/11/25 15:23:33;;;;;;;;;1.00;1.00;;;;;27.26;41.08;101892.00;5076157;28;45455;-74
2022/11/25 15:26:00;;;;;;;;;1.67;1.00;;;;;27.25;40.93;101896.59;5072843;27;45519;-74
2022/11/25 15:28:32;;;;;;;;;1.67;1.67;;;;;27.24;40.40;101903.06;5076541;28;45367;-74
2022/11/25 15:31:00;;;;;;;;;1.33;1.33;;;;;27.21;40.61;101908.84;5075093;28;46591;-74
2022/11/25 15:33:27;;;;;;;;;1.00;1.00;;;;;27.17;40.52;101911.06;5053973;28;45497;-74
2022/11/25 15:35:54;;;;;;;;;2.00;2.00;;;;;27.14;40.69;101905.94;5076455;27;45571;-74
2022/11/25 15:38:45;;;;;;;;;1.00;1.00;;;;;27.10;41.23;101919.03;5053882;27;45596;-74
2022/11/25 15:41:33;;;;;;;;;1.00;1.00;;;;;27.11;40.60;101919.91;5075045;28;46206;-73
2022/11/25 15:44:01;;;;;;;;;1.00;1.00;;;;;27.14;41.25;101932.34;5071786;27;45518;-73
2022/11/25 15:46:29;;;;;;;;;2.33;1.67;;;;;27.17;40.67;101934.72;5065206;27;45551;-75
2022/11/25 15:49:02;;;;;;;;;1.00;1.00;;;;;27.24;41.16;101930.31;5077100;28;45426;-75
2022/11/25 15:51:43;;;;;;;;;0.00;0.00;;;;;27.31;41.19;101938.69;5058370;28;46168;-75
2022/11/25 15:54:11;;;;;;;;;1.00;1.00;;;;;27.38;41.21;101944.34;5072433;27;47151;-76
2022/11/25 15:56:41;;;;;;;;;1.33;1.33;;;;;27.41;40.65;101947.59;5062632;28;45597;-76
2022/11/25 15:59:39;;;;;;;;;0.67;0.33;;;;;27.46;40.63;101952.56;5075692;28;45546;-76
2022/11/25 16:02:34;;;;;;;;;3.00;1.00;;;;;27.48;41.30;101959.56;5074930;27;47239;-76
2022/11/25 16:05:12;;;;;;;;;2.00;2.00;;;;;27.50;41.08;101964.81;5073437;28;45412;-76
2022/11/25 16:07:49;;;;;;;;;3.67;1.00;;;;;27.50;41.23;101970.25;5054475;28;45587;-73
2022/11/25 16:10:27;;;;;;;;;4.00;1.00;;;;;27.49;40.68;101965.84;5074923;28;45428;-73
2022/11/25 16:13:14;;;;;;;;;1.33;1.00;;;;;27.48;40.58;101970.44;5072684;27;46146;-73
2022/11/25 16:15:44;;;;;;;;;0.67;0.67;;;;;27.49;40.57;101980.34;5068002;27;45496;-73
2022/11/25 16:18:15;;;;;;;;;2.67;2.00;;;;;27.47;40.84;101974.19;5052212;28;45372;-72
2022/11/25 16:20:54;;;;;;;;;1.00;1.00;;;;;27.49;41.08;101980.34;5072791;27;45477;-74
2022/11/25 16:23:21;;;;;;;;;0.33;0.33;;;;;27.57;40.84;101984.09;5071355;27;45742;-74
2022/11/25 16:25:54;;;;;;;;;3.00;1.00;;;;;27.60;40.97;101987.41;5072795;28;45414;-72
2022/11/25 16:28:21;;;;;;;;;1.00;1.00;;;;;27.65;40.63;101992.34;5068488;28;45561;-73
2022/11/25 16:30:47;;;;;;;;;1.00;1.00;;;;;27.72;40.97;101997.97;5072291;28;45722;-74
2022/11/25 16:33:12;;;;;;;;;2.33;2.33;;;;;27.78;40.77;102004.66;5073608;27;47563;-74
2022/11/25 16:35:38;;;;;;;;;3.33;1.00;;;;;27.82;41.04;102011.44;5073631;27;45772;-74
2022/11/25 16:38:03;;;;;;;;;2.00;2.00;;;;;27.84;40.95;102018.44;5073459;27;45417;-73
2022/11/25 16:40:28;;;;;;;;;2.00;1.00;;;;;27.84;41.08;102009.44;5073300;27;45514;-73
2022/11/25 16:42:54;;;;;;;;;2.67;1.00;;;;;27.84;40.53;102014.88;5054546;28;46120;-73
2022/11/25 16:45:21;;;;;;;;;1.00;1.00;;;;;27.83;41.20;102013.19;5069540;27;45437;-73
2022/11/25 16:47:47;;;;;;;;;2.00;2.00;;;;;27.81;41.37;102016.06;5070620;27;45577;-73
2022/11/25 16:50:14;;;;;;;;;2.00;1.00;;;;;27.79;41.11;102023.53;5071758;27;47230;-73
2022/11/25 16:52:39;;;;;;;;;3.33;3.00;;;;;27.73;40.98;102021.50;5069921;28;46914;-73
2022/11/25 16:55:05;;;;;;;;;5.67;4.00;;;;;27.61;40.58;102029.13;5073599;28;45642;-74
2022/11/25 16:57:33;;;;;;;;;2.33;2.33;;;;;27.46;40.41;102027.00;5070002;27;45894;-73
2022/11/25 17:00:06;;;;;;;;;4.33;2.33;;;;;27.29;39.78;102027.94;5071835;27;45431;-75
2022/11/25 17:02:32;;;;;;;;;4.33;3.00;;;;;27.15;39.83;102026.69;5073824;28;46281;-73
2022/11/25 17:05:05;;;;;;;;;3.00;3.00;;;;;27.03;40.32;102028.84;5072419;28;45478;-73
2022/11/25 17:07:30;;;;;;;;;4.00;3.00;;;;;26.94;40.32;102030.66;5073976;28;45435;-73
2022/11/25 17:09:56;;;;;;;;;7.33;4.67;;;;;26.85;39.90;102029.72;5073792;28;47067;-74
2022/11/25 17:12:28;;;;;;;;;10.67;10.33;;;;;26.78;40.44;102031.38;5073520;27;57441;-72
2022/11/25 17:14:53;;;;;;;;;11.67;11.67;;;;;26.70;40.11;102040.34;5066026;27;45507;-74
2022/11/25 17:17:23;;;;;;;;;8.33;7.00;;;;;26.64;39.68;102046.44;5055752;28;45437;-73
2022/11/25 17:19:50;;;;;;;;;11.00;9.00;;;;;26.59;40.10;102055.06;5073599;28;45494;-74
2022/11/25 17:22:25;;;;;;;;;8.67;6.33;;;;;26.54;40.13;102060.13;5073558;28;45681;-74
2022/11/25 17:24:50;;;;;;;;;9.33;9.33;;;;;26.47;39.84;102061.75;5067541;28;45486;-73
2022/11/25 17:27:21;;;;;;;;;9.00;7.00;;;;;26.40;39.82;102067.00;5073972;28;45368;-71
2022/11/25 17:29:47;;;;;;;;;6.33;6.33;;;;;26.32;39.84;102070.47;5073637;28;45503;-72
2022/11/25 17:32:14;;;;;;;;;10.67;9.67;;;;;26.26;39.96;102076.53;5072601;27;46373;-72
2022/11/25 17:34:39;;;;;;;;;9.67;7.33;;;;;26.21;40.03;102073.41;5073164;28;45443;-72
2022/11/25 17:37:16;;;;;;;;;8.33;8.00;;;;;26.16;40.00;102077.44;5074253;28;46086;-72
2022/11/25 17:39:42;;;;;;;;;9.00;9.00;;;;;26.12;39.93;102086.06;5074956;28;45407;-72
2022/11/25 17:42:14;;;;;;;;;13.00;10.00;;;;;26.09;39.67;102089.09;5073270;28;45911;-72
2022/11/25 17:44:41;;;;;;;;;15.00;14.67;;;;;26.05;39.71;102089.41;5072615;28;45533;-72
2022/11/25 17:47:14;;;;;;;;;11.00;10.00;;;;;26.05;39.78;102094.00;5070588;28;45766;-72
2022/11/25 17:49:39;;;;;;;;;9.00;9.00;;;;;26.01;40.01;102092.56;5069562;27;45642;-71
2022/11/25 17:52:05;;;;;;;;;12.67;9.00;;;;;26.02;40.11;102099.72;5052673;28;45927;-71
2022/11/25 17:54:31;;;;;;;;;16.00;9.00;;;;;26.00;40.04;102108.03;5070937;28;45798;-71
2022/11/25 17:56:57;;;;;;;;;10.33;8.00;;;;;25.99;39.83;102106.31;5070379;28;45678;-72
2022/11/25 17:59:25;;;;;;;;;10.67;8.00;;;;;25.97;39.61;102112.94;5073105;28;45288;-72
2022/11/25 18:01:51;;;;;;;;;11.00;8.33;;;;;25.95;39.61;102117.69;5069826;28;45629;-74
2022/11/25 18:04:22;;;;;;;;;16.67;12.00;;;;;25.87;39.70;102119.28;5068152;27;45475;-71
2022/11/25 18:06:48;;;;;;;;;11.67;9.67;;;;;25.81;39.50;102121.75;5062650;28;45449;-72
2022/11/25 18:09:13;;;;;;;;;9.33;8.00;;;;;25.80;39.52;102126.34;5069149;28;45502;-72
2022/11/25 18:11:42;;;;;;;;;10.00;10.00;;;;;25.79;39.58;102138.25;5051540;28;46850;-72
2022/11/25 18:14:22;;;;;;;;;9.67;8.67;;;;;25.78;39.55;102139.22;5072000;28;45473;-72
2022/11/25 18:16:48;;;;;;;;;12.00;9.00;;;;;25.78;39.79;102144.66;5070522;28;45459;-73
2022/11/25 18:19:13;;;;;;;;;12.00;12.00;;;;;25.77;39.72;102149.25;5068111;27;45524;-73
2022/11/25 18:21:39;;;;;;;;;15.00;11.00;;;;;25.76;39.40;102155.69;5071347;28;56927;-72
2022/11/25 18:24:04;;;;;;;;;10.00;10.00;;;;;25.76;39.48;102155.69;5067067;27;45664;-73
2022/11/25 18:26:33;;;;;;;;;10.67;10.67;;;;;25.72;39.87;102158.88;5071882;28;45726;-73
2022/11/25 18:29:00;;;;;;;;;11.67;10.33;;;;;25.67;39.90;102159.31;5067841;27;45521;-73
2022/11/25 18:31:26;;;;;;;;;10.00;9.33;;;;;25.61;39.72;102165.34;5057214;28;47644;-73
2022/11/25 18:33:52;;;;;;;;;11.67;11.67;;;;;25.58;39.47;102162.94;5067444;28;45339;-72
2022/11/25 18:36:17;;;;;;;;;13.00;10.33;;;;;25.56;39.90;102165.78;5066449;28;45380;-74
